sensor_id;sensor_type;location;lat;lon;timestamp;P1;durP1;ratioP1;P2;durP2;ratioP2
18526;SDS011;9393;42.158;24.748;2023-10-09T00:00:42;6.88;;;2.17;;
18526;SDS011;9393;42.158;24.748;2023-10-09T00:04:05;14.52;;;2.45;;
18526;SDS011;9393;42.158;24.748;2023-10-09T00:07:13;10.10;;;2.25;;
18526;SDS011;9393;42.158;24.748;2023-10-09T00:10:19;9.30;;;1.85;;
18526;SDS011;9393;42.158;24.748;2023-10-09T00:13:24;8.55;;;2.63;;
18526;SDS011;9393;42.158;24.748;2023-10-09T00:16:31;6.68;;;2.15;;
18526;SDS011;9393;42.158;24.748;2023-10-09T00:19:46;7.28;;;2.22;;
18526;SDS011;9393;42.158;24.748;2023-10-09T00:22:54;6.80;;;2.00;;
18526;SDS011;9393;42.158;24.748;2023-10-09T00:25:58;7.53;;;2.80;;
18526;SDS011;9393;42.158;24.748;2023-10-09T00:29:17;7.50;;;2.10;;
18526;SDS011;9393;42.158;24.748;2023-10-09T00:32:25;8.23;;;2.38;;
18526;SDS011;9393;42.158;24.748;2023-10-09T00:35:30;9.18;;;2.10;;
18526;SDS011;9393;42.158;24.748;2023-10-09T00:38:48;9.73;;;2.30;;
18526;SDS011;9393;42.158;24.748;2023-10-09T00:41:54;11.38;;;2.40;;
18526;SDS011;9393;42.158;24.748;2023-10-09T00:45:01;7.93;;;2.08;;
18526;SDS011;9393;42.158;24.748;2023-10-09T00:48:07;7.65;;;2.13;;
18526;SDS011;9393;42.158;24.748;2023-10-09T00:51:13;10.32;;;2.22;;
18526;SDS011;9393;42.158;24.748;2023-10-09T00:54:21;7.32;;;1.90;;
18526;SDS011;9393;42.158;24.748;2023-10-09T00:57:29;7.53;;;1.88;;
18526;SDS011;9393;42.158;24.748;2023-10-09T01:00:36;9.20;;;2.05;;
18526;SDS011;9393;42.158;24.748;2023-10-09T01:03:49;5.85;;;1.65;;
18526;SDS011;9393;42.158;24.748;2023-10-09T01:06:55;10.10;;;1.85;;
18526;SDS011;9393;42.158;24.748;2023-10-09T01:10:10;8.60;;;2.10;;
18526;SDS011;9393;42.158;24.748;2023-10-09T01:13:18;6.63;;;1.30;;
18526;SDS011;9393;42.158;24.748;2023-10-09T01:16:23;5.90;;;1.27;;
18526;SDS011;9393;42.158;24.748;2023-10-09T01:19:27;3.58;;;1.50;;
18526;SDS011;9393;42.158;24.748;2023-10-09T01:22:34;7.93;;;1.45;;
18526;SDS011;9393;42.158;24.748;2023-10-09T01:25:39;6.38;;;1.27;;
18526;SDS011;9393;42.158;24.748;2023-10-09T01:28:51;4.30;;;1.50;;
18526;SDS011;9393;42.158;24.748;2023-10-09T01:32:00;4.63;;;1.20;;
18526;SDS011;9393;42.158;24.748;2023-10-09T01:35:05;5.15;;;1.60;;
18526;SDS011;9393;42.158;24.748;2023-10-09T01:38:23;7.03;;;1.50;;
18526;SDS011;9393;42.158;24.748;2023-10-09T01:41:44;3.78;;;1.52;;
18526;SDS011;9393;42.158;24.748;2023-10-09T01:44:49;10.27;;;1.90;;
18526;SDS011;9393;42.158;24.748;2023-10-09T01:47:54;5.05;;;1.58;;
18526;SDS011;9393;42.158;24.748;2023-10-09T01:51:00;6.90;;;1.95;;
18526;SDS011;9393;42.158;24.748;2023-10-09T01:54:07;7.75;;;1.83;;
18526;SDS011;9393;42.158;24.748;2023-10-09T01:57:19;6.40;;;2.20;;
18526;SDS011;9393;42.158;24.748;2023-10-09T02:00:26;9.30;;;2.47;;
18526;SDS011;9393;42.158;24.748;2023-10-09T02:03:31;5.25;;;2.35;;
18526;SDS011;9393;42.158;24.748;2023-10-09T02:06:39;10.20;;;2.22;;
18526;SDS011;9393;42.158;24.748;2023-10-09T02:09:43;7.50;;;2.47;;
18526;SDS011;9393;42.158;24.748;2023-10-09T02:12:51;7.07;;;2.40;;
18526;SDS011;9393;42.158;24.748;2023-10-09T02:16:00;11.93;;;2.72;;
18526;SDS011;9393;42.158;24.748;2023-10-09T02:19:17;13.23;;;2.92;;
18526;SDS011;9393;42.158;24.748;2023-10-09T02:22:33;11.80;;;2.85;;
18526;SDS011;9393;42.158;24.748;2023-10-09T02:25:39;16.45;;;2.55;;
18526;SDS011;9393;42.158;24.748;2023-10-09T02:28:47;14.98;;;3.08;;
18526;SDS011;9393;42.158;24.748;2023-10-09T02:32:02;19.70;;;2.95;;
18526;SDS011;9393;42.158;24.748;2023-10-09T02:35:16;17.52;;;2.25;;
18526;SDS011;9393;42.158;24.748;2023-10-09T02:38:40;11.90;;;1.42;;
18526;SDS011;9393;42.158;24.748;2023-10-09T02:41:44;8.52;;;1.40;;
18526;SDS011;9393;42.158;24.748;2023-10-09T02:44:53;16.25;;;1.92;;
18526;SDS011;9393;42.158;24.748;2023-10-09T02:47:57;11.07;;;1.87;;
18526;SDS011;9393;42.158;24.748;2023-10-09T02:51:02;7.97;;;1.60;;
18526;SDS011;9393;42.158;24.748;2023-10-09T02:54:07;9.77;;;1.50;;
18526;SDS011;9393;42.158;24.748;2023-10-09T02:57:21;8.80;;;1.63;;
18526;SDS011;9393;42.158;24.748;2023-10-09T03:00:27;9.03;;;1.80;;
18526;SDS011;9393;42.158;24.748;2023-10-09T03:03:33;8.97;;;1.20;;
18526;SDS011;9393;42.158;24.748;2023-10-09T03:06:38;7.23;;;1.30;;
18526;SDS011;9393;42.158;24.748;2023-10-09T03:09:52;7.60;;;1.50;;
18526;SDS011;9393;42.158;24.748;2023-10-09T03:12:56;5.77;;;1.30;;
18526;SDS011;9393;42.158;24.748;2023-10-09T03:16:03;9.07;;;1.53;;
18526;SDS011;9393;42.158;24.748;2023-10-09T03:19:07;7.50;;;1.77;;
18526;SDS011;9393;42.158;24.748;2023-10-09T03:22:13;6.70;;;1.30;;
18526;SDS011;9393;42.158;24.748;2023-10-09T03:25:17;6.97;;;2.07;;
18526;SDS011;9393;42.158;24.748;2023-10-09T03:28:22;8.60;;;1.57;;
18526;SDS011;9393;42.158;24.748;2023-10-09T03:31:28;5.17;;;1.20;;
18526;SDS011;9393;42.158;24.748;2023-10-09T03:34:34;6.33;;;1.20;;
18526;SDS011;9393;42.158;24.748;2023-10-09T03:37:38;9.43;;;1.20;;
18526;SDS011;9393;42.158;24.748;2023-10-09T03:40:42;5.10;;;0.80;;
18526;SDS011;9393;42.158;24.748;2023-10-09T03:43:46;6.13;;;0.97;;
18526;SDS011;9393;42.158;24.748;2023-10-09T03:46:51;5.50;;;1.00;;
18526;SDS011;9393;42.158;24.748;2023-10-09T03:49:56;5.87;;;1.20;;
18526;SDS011;9393;42.158;24.748;2023-10-09T03:53:04;5.20;;;1.47;;
18526;SDS011;9393;42.158;24.748;2023-10-09T03:56:16;5.33;;;0.90;;
18526;SDS011;9393;42.158;24.748;2023-10-09T03:59:20;6.80;;;1.30;;
18526;SDS011;9393;42.158;24.748;2023-10-09T04:02:26;7.80;;;1.17;;
18526;SDS011;9393;42.158;24.748;2023-10-09T04:05:31;4.33;;;1.10;;
18526;SDS011;9393;42.158;24.748;2023-10-09T04:08:35;7.00;;;1.27;;
18526;SDS011;9393;42.158;24.748;2023-10-09T04:11:42;5.27;;;0.90;;
18526;SDS011;9393;42.158;24.748;2023-10-09T04:14:48;2.80;;;1.27;;
18526;SDS011;9393;42.158;24.748;2023-10-09T04:17:58;3.03;;;1.03;;
18526;SDS011;9393;42.158;24.748;2023-10-09T04:21:07;4.53;;;0.90;;
18526;SDS011;9393;42.158;24.748;2023-10-09T04:24:26;7.57;;;1.63;;
18526;SDS011;9393;42.158;24.748;2023-10-09T04:27:38;4.10;;;1.10;;
18526;SDS011;9393;42.158;24.748;2023-10-09T04:30:42;4.47;;;1.00;;
18526;SDS011;9393;42.158;24.748;2023-10-09T04:33:50;4.27;;;1.10;;
18526;SDS011;9393;42.158;24.748;2023-10-09T04:37:00;6.10;;;1.00;;
18526;SDS011;9393;42.158;24.748;2023-10-09T04:40:21;6.83;;;1.30;;
18526;SDS011;9393;42.158;24.748;2023-10-09T04:43:39;1.90;;;0.80;;
18526;SDS011;9393;42.158;24.748;2023-10-09T04:46:46;4.40;;;1.27;;
18526;SDS011;9393;42.158;24.748;2023-10-09T04:50:07;7.13;;;1.20;;
18526;SDS011;9393;42.158;24.748;2023-10-09T04:53:13;7.93;;;1.50;;
18526;SDS011;9393;42.158;24.748;2023-10-09T04:56:25;5.67;;;1.27;;
18526;SDS011;9393;42.158;24.748;2023-10-09T04:59:33;5.87;;;0.80;;
18526;SDS011;9393;42.158;24.748;2023-10-09T05:02:48;4.23;;;1.30;;
18526;SDS011;9393;42.158;24.748;2023-10-09T05:05:58;4.83;;;1.20;;
18526;SDS011;9393;42.158;24.748;2023-10-09T05:09:23;2.97;;;0.90;;
18526;SDS011;9393;42.158;24.748;2023-10-09T05:12:28;7.27;;;1.30;;
18526;SDS011;9393;42.158;24.748;2023-10-09T05:15:31;5.37;;;1.10;;
18526;SDS011;9393;42.158;24.748;2023-10-09T05:18:36;2.10;;;1.20;;
18526;SDS011;9393;42.158;24.748;2023-10-09T05:21:41;7.70;;;1.87;;
18526;SDS011;9393;42.158;24.748;2023-10-09T05:24:48;1.83;;;1.20;;
18526;SDS011;9393;42.158;24.748;2023-10-09T05:27:56;7.03;;;0.97;;
18526;SDS011;9393;42.158;24.748;2023-10-09T05:31:20;4.40;;;1.00;;
18526;SDS011;9393;42.158;24.748;2023-10-09T05:34:58;3.67;;;1.27;;
18526;SDS011;9393;42.158;24.748;2023-10-09T05:38:19;5.00;;;1.40;;
18526;SDS011;9393;42.158;24.748;2023-10-09T05:41:26;4.73;;;1.50;;
18526;SDS011;9393;42.158;24.748;2023-10-09T05:44:50;2.93;;;1.40;;
18526;SDS011;9393;42.158;24.748;2023-10-09T05:48:13;6.50;;;1.53;;
18526;SDS011;9393;42.158;24.748;2023-10-09T05:51:35;7.77;;;1.47;;
18526;SDS011;9393;42.158;24.748;2023-10-09T05:54:47;3.87;;;1.60;;
18526;SDS011;9393;42.158;24.748;2023-10-09T05:58:08;3.90;;;1.60;;
18526;SDS011;9393;42.158;24.748;2023-10-09T06:01:30;7.37;;;1.90;;
18526;SDS011;9393;42.158;24.748;2023-10-09T06:04:53;4.63;;;1.53;;
18526;SDS011;9393;42.158;24.748;2023-10-09T06:07:58;3.50;;;1.70;;
18526;SDS011;9393;42.158;24.748;2023-10-09T06:11:10;4.87;;;1.30;;
18526;SDS011;9393;42.158;24.748;2023-10-09T06:14:29;3.17;;;1.40;;
18526;SDS011;9393;42.158;24.748;2023-10-09T06:17:47;5.33;;;1.40;;
18526;SDS011;9393;42.158;24.748;2023-10-09T06:20:53;3.43;;;1.43;;
18526;SDS011;9393;42.158;24.748;2023-10-09T06:24:15;5.03;;;1.30;;
18526;SDS011;9393;42.158;24.748;2023-10-09T06:27:21;5.30;;;1.50;;
18526;SDS011;9393;42.158;24.748;2023-10-09T06:30:47;4.03;;;1.40;;
18526;SDS011;9393;42.158;24.748;2023-10-09T06:33:52;5.83;;;1.17;;
18526;SDS011;9393;42.158;24.748;2023-10-09T06:37:09;5.57;;;1.33;;
18526;SDS011;9393;42.158;24.748;2023-10-09T06:40:37;6.13;;;1.50;;
18526;SDS011;9393;42.158;24.748;2023-10-09T06:44:00;4.83;;;1.30;;
18526;SDS011;9393;42.158;24.748;2023-10-09T06:47:10;2.90;;;1.23;;
18526;SDS011;9393;42.158;24.748;2023-10-09T06:50:15;1.90;;;1.10;;
18526;SDS011;9393;42.158;24.748;2023-10-09T06:53:27;8.27;;;1.80;;
18526;SDS011;9393;42.158;24.748;2023-10-09T06:56:51;3.30;;;1.20;;
18526;SDS011;9393;42.158;24.748;2023-10-09T07:00:14;4.63;;;1.50;;
18526;SDS011;9393;42.158;24.748;2023-10-09T07:03:32;5.77;;;1.80;;
18526;SDS011;9393;42.158;24.748;2023-10-09T07:06:37;6.63;;;2.10;;
18526;SDS011;9393;42.158;24.748;2023-10-09T07:09:53;2.27;;;1.00;;
18526;SDS011;9393;42.158;24.748;2023-10-09T07:13:14;4.27;;;1.13;;
18526;SDS011;9393;42.158;24.748;2023-10-09T07:16:22;4.40;;;1.20;;
18526;SDS011;9393;42.158;24.748;2023-10-09T07:19:31;5.37;;;1.47;;
18526;SDS011;9393;42.158;24.748;2023-10-09T07:22:58;2.87;;;1.37;;
18526;SDS011;9393;42.158;24.748;2023-10-09T07:26:15;2.73;;;1.17;;
18526;SDS011;9393;42.158;24.748;2023-10-09T07:29:25;6.33;;;1.50;;
18526;SDS011;9393;42.158;24.748;2023-10-09T07:32:46;6.10;;;1.43;;
18526;SDS011;9393;42.158;24.748;2023-10-09T07:35:54;2.80;;;1.50;;
18526;SDS011;9393;42.158;24.748;2023-10-09T07:39:01;4.33;;;1.30;;
18526;SDS011;9393;42.158;24.748;2023-10-09T07:42:15;2.73;;;1.30;;
18526;SDS011;9393;42.158;24.748;2023-10-09T07:45:21;3.90;;;1.27;;
18526;SDS011;9393;42.158;24.748;2023-10-09T07:48:43;5.63;;;1.40;;
18526;SDS011;9393;42.158;24.748;2023-10-09T07:51:54;6.63;;;0.90;;
18526;SDS011;9393;42.158;24.748;2023-10-09T07:55:01;3.80;;;1.30;;
18526;SDS011;9393;42.158;24.748;2023-10-09T07:58:05;3.17;;;1.20;;
18526;SDS011;9393;42.158;24.748;2023-10-09T08:01:14;3.67;;;1.47;;
18526;SDS011;9393;42.158;24.748;2023-10-09T08:04:26;6.77;;;1.63;;
18526;SDS011;9393;42.158;24.748;2023-10-09T08:07:42;3.23;;;1.70;;
18526;SDS011;9393;42.158;24.748;2023-10-09T08:11:12;5.37;;;1.80;;
18526;SDS011;9393;42.158;24.748;2023-10-09T08:14:30;5.20;;;1.90;;
18526;SDS011;9393;42.158;24.748;2023-10-09T08:17:47;6.33;;;1.80;;
18526;SDS011;9393;42.158;24.748;2023-10-09T08:20:57;4.50;;;1.65;;
18526;SDS011;9393;42.158;24.748;2023-10-09T08:24:19;3.97;;;2.13;;
18526;SDS011;9393;42.158;24.748;2023-10-09T08:27:36;4.72;;;1.50;;
18526;SDS011;9393;42.158;24.748;2023-10-09T08:30:59;9.20;;;1.58;;
18526;SDS011;9393;42.158;24.748;2023-10-09T08:34:06;4.55;;;1.80;;
18526;SDS011;9393;42.158;24.748;2023-10-09T08:37:16;6.70;;;2.08;;
18526;SDS011;9393;42.158;24.748;2023-10-09T08:40:21;7.93;;;2.63;;
18526;SDS011;9393;42.158;24.748;2023-10-09T08:43:33;7.70;;;2.13;;
18526;SDS011;9393;42.158;24.748;2023-10-09T08:46:40;5.85;;;2.35;;
18526;SDS011;9393;42.158;24.748;2023-10-09T08:49:46;4.88;;;1.83;;
18526;SDS011;9393;42.158;24.748;2023-10-09T08:52:55;6.15;;;2.10;;
18526;SDS011;9393;42.158;24.748;2023-10-09T08:55:59;4.97;;;1.88;;
18526;SDS011;9393;42.158;24.748;2023-10-09T08:59:05;3.85;;;2.05;;
18526;SDS011;9393;42.158;24.748;2023-10-09T09:02:09;6.18;;;1.98;;
18526;SDS011;9393;42.158;24.748;2023-10-09T09:05:16;4.10;;;1.95;;
18526;SDS011;9393;42.158;24.748;2023-10-09T09:08:23;8.27;;;2.35;;
18526;SDS011;9393;42.158;24.748;2023-10-09T09:11:30;4.18;;;2.20;;
18526;SDS011;9393;42.158;24.748;2023-10-09T09:14:51;4.30;;;2.00;;
18526;SDS011;9393;42.158;24.748;2023-10-09T09:18:02;10.52;;;2.50;;
18526;SDS011;9393;42.158;24.748;2023-10-09T09:21:17;10.57;;;3.65;;
18526;SDS011;9393;42.158;24.748;2023-10-09T09:24:26;7.43;;;2.08;;
18526;SDS011;9393;42.158;24.748;2023-10-09T09:27:45;5.53;;;1.92;;
18526;SDS011;9393;42.158;24.748;2023-10-09T09:30:55;6.72;;;1.92;;
18526;SDS011;9393;42.158;24.748;2023-10-09T09:34:15;11.25;;;2.15;;
18526;SDS011;9393;42.158;24.748;2023-10-09T09:37:20;5.72;;;1.88;;
18526;SDS011;9393;42.158;24.748;2023-10-09T09:40:32;6.65;;;1.67;;
18526;SDS011;9393;42.158;24.748;2023-10-09T09:43:43;5.30;;;2.30;;
18526;SDS011;9393;42.158;24.748;2023-10-09T09:46:48;4.97;;;2.00;;
18526;SDS011;9393;42.158;24.748;2023-10-09T09:49:56;3.15;;;1.67;;
18526;SDS011;9393;42.158;24.748;2023-10-09T09:53:13;5.63;;;2.10;;
18526;SDS011;9393;42.158;24.748;2023-10-09T09:56:21;4.45;;;2.22;;
18526;SDS011;9393;42.158;24.748;2023-10-09T09:59:28;5.03;;;2.10;;
18526;SDS011;9393;42.158;24.748;2023-10-09T10:02:37;3.60;;;1.77;;
18526;SDS011;9393;42.158;24.748;2023-10-09T10:05:43;8.82;;;2.20;;
18526;SDS011;9393;42.158;24.748;2023-10-09T10:08:50;7.07;;;2.38;;
18526;SDS011;9393;42.158;24.748;2023-10-09T10:11:56;3.58;;;1.80;;
18526;SDS011;9393;42.158;24.748;2023-10-09T10:15:06;6.53;;;2.00;;
18526;SDS011;9393;42.158;24.748;2023-10-09T10:18:17;5.25;;;2.05;;
18526;SDS011;9393;42.158;24.748;2023-10-09T10:21:22;11.73;;;1.95;;
18526;SDS011;9393;42.158;24.748;2023-10-09T10:24:40;7.88;;;1.98;;
18526;SDS011;9393;42.158;24.748;2023-10-09T10:28:19;4.05;;;1.80;;
18526;SDS011;9393;42.158;24.748;2023-10-09T10:31:57;4.22;;;1.52;;
18526;SDS011;9393;42.158;24.748;2023-10-09T10:35:03;6.68;;;1.80;;
18526;SDS011;9393;42.158;24.748;2023-10-09T10:38:21;3.28;;;1.70;;
18526;SDS011;9393;42.158;24.748;2023-10-09T10:41:26;11.13;;;2.55;;
18526;SDS011;9393;42.158;24.748;2023-10-09T10:44:35;6.13;;;1.65;;
18526;SDS011;9393;42.158;24.748;2023-10-09T10:47:44;4.45;;;1.80;;
18526;SDS011;9393;42.158;24.748;2023-10-09T10:50:55;9.48;;;2.40;;
18526;SDS011;9393;42.158;24.748;2023-10-09T10:54:01;7.70;;;1.88;;
18526;SDS011;9393;42.158;24.748;2023-10-09T10:57:19;10.45;;;1.75;;
18526;SDS011;9393;42.158;24.748;2023-10-09T11:00:55;5.22;;;2.22;;
18526;SDS011;9393;42.158;24.748;2023-10-09T11:04:18;7.18;;;2.05;;
18526;SDS011;9393;42.158;24.748;2023-10-09T11:07:27;7.75;;;1.83;;
18526;SDS011;9393;42.158;24.748;2023-10-09T11:10:31;4.88;;;1.98;;
18526;SDS011;9393;42.158;24.748;2023-10-09T11:13:35;8.45;;;2.25;;
18526;SDS011;9393;42.158;24.748;2023-10-09T11:16:56;5.38;;;1.58;;
18526;SDS011;9393;42.158;24.748;2023-10-09T11:20:01;8.02;;;2.05;;
18526;SDS011;9393;42.158;24.748;2023-10-09T11:23:25;7.35;;;1.85;;
18526;SDS011;9393;42.158;24.748;2023-10-09T11:26:39;6.43;;;2.42;;
18526;SDS011;9393;42.158;24.748;2023-10-09T11:29:47;6.25;;;2.10;;
18526;SDS011;9393;42.158;24.748;2023-10-09T11:33:13;9.93;;;1.95;;
18526;SDS011;9393;42.158;24.748;2023-10-09T11:36:18;8.02;;;1.98;;
18526;SDS011;9393;42.158;24.748;2023-10-09T11:39:34;6.10;;;2.33;;
18526;SDS011;9393;42.158;24.748;2023-10-09T11:42:39;6.00;;;2.00;;
18526;SDS011;9393;42.158;24.748;2023-10-09T11:45:51;7.90;;;2.10;;
18526;SDS011;9393;42.158;24.748;2023-10-09T11:49:07;3.78;;;2.00;;
18526;SDS011;9393;42.158;24.748;2023-10-09T11:52:36;5.90;;;2.10;;
18526;SDS011;9393;42.158;24.748;2023-10-09T11:56:11;6.55;;;2.20;;
18526;SDS011;9393;42.158;24.748;2023-10-09T11:59:19;4.55;;;2.25;;
18526;SDS011;9393;42.158;24.748;2023-10-09T12:02:25;8.77;;;2.78;;
18526;SDS011;9393;42.158;24.748;2023-10-09T12:05:32;10.73;;;2.50;;
18526;SDS011;9393;42.158;24.748;2023-10-09T12:08:36;7.50;;;1.92;;
18526;SDS011;9393;42.158;24.748;2023-10-09T12:11:42;4.38;;;1.90;;
18526;SDS011;9393;42.158;24.748;2023-10-09T12:15:05;7.45;;;2.42;;
18526;SDS011;9393;42.158;24.748;2023-10-09T12:18:15;7.60;;;2.00;;
18526;SDS011;9393;42.158;24.748;2023-10-09T12:21:22;6.47;;;2.08;;
18526;SDS011;9393;42.158;24.748;2023-10-09T12:24:26;7.78;;;2.85;;
18526;SDS011;9393;42.158;24.748;2023-10-09T12:27:31;8.15;;;2.28;;
18526;SDS011;9393;42.158;24.748;2023-10-09T12:30:35;5.05;;;2.15;;
18526;SDS011;9393;42.158;24.748;2023-10-09T12:33:42;5.15;;;1.80;;
18526;SDS011;9393;42.158;24.748;2023-10-09T12:36:47;4.63;;;1.95;;
18526;SDS011;9393;42.158;24.748;2023-10-09T12:39:51;7.65;;;2.10;;
18526;SDS011;9393;42.158;24.748;2023-10-09T12:42:58;6.78;;;2.40;;
18526;SDS011;9393;42.158;24.748;2023-10-09T12:46:04;7.95;;;2.30;;
18526;SDS011;9393;42.158;24.748;2023-10-09T12:49:09;7.45;;;2.20;;
18526;SDS011;9393;42.158;24.748;2023-10-09T12:52:15;7.25;;;2.75;;
18526;SDS011;9393;42.158;24.748;2023-10-09T12:55:19;7.03;;;2.45;;
18526;SDS011;9393;42.158;24.748;2023-10-09T12:58:23;5.95;;;2.35;;
18526;SDS011;9393;42.158;24.748;2023-10-09T13:01:29;6.88;;;2.33;;
18526;SDS011;9393;42.158;24.748;2023-10-09T13:04:34;2.65;;;1.73;;
18526;SDS011;9393;42.158;24.748;2023-10-09T13:07:44;5.47;;;2.08;;
18526;SDS011;9393;42.158;24.748;2023-10-09T13:10:48;4.55;;;1.67;;
18526;SDS011;9393;42.158;24.748;2023-10-09T13:14:02;6.00;;;1.85;;
18526;SDS011;9393;42.158;24.748;2023-10-09T13:17:14;5.32;;;1.92;;
18526;SDS011;9393;42.158;24.748;2023-10-09T13:20:18;7.15;;;2.03;;
18526;SDS011;9393;42.158;24.748;2023-10-09T13:23:25;4.32;;;1.70;;
18526;SDS011;9393;42.158;24.748;2023-10-09T13:26:40;3.60;;;1.60;;
18526;SDS011;9393;42.158;24.748;2023-10-09T13:29:47;3.35;;;1.58;;
18526;SDS011;9393;42.158;24.748;2023-10-09T13:32:53;7.53;;;4.00;;
18526;SDS011;9393;42.158;24.748;2023-10-09T13:35:57;7.95;;;2.97;;
18526;SDS011;9393;42.158;24.748;2023-10-09T13:39:03;3.47;;;1.80;;
18526;SDS011;9393;42.158;24.748;2023-10-09T13:42:33;4.18;;;1.70;;
18526;SDS011;9393;42.158;24.748;2023-10-09T13:45:38;4.28;;;1.75;;
18526;SDS011;9393;42.158;24.748;2023-10-09T13:48:45;5.35;;;2.58;;
18526;SDS011;9393;42.158;24.748;2023-10-09T13:51:51;10.73;;;2.25;;
18526;SDS011;9393;42.158;24.748;2023-10-09T13:54:58;2.90;;;1.58;;
18526;SDS011;9393;42.158;24.748;2023-10-09T13:58:18;4.18;;;1.85;;
18526;SDS011;9393;42.158;24.748;2023-10-09T14:01:23;3.47;;;1.73;;
18526;SDS011;9393;42.158;24.748;2023-10-09T14:04:34;5.18;;;1.88;;
18526;SDS011;9393;42.158;24.748;2023-10-09T14:07:39;4.38;;;2.33;;
18526;SDS011;9393;42.158;24.748;2023-10-09T14:10:43;5.95;;;1.90;;
18526;SDS011;9393;42.158;24.748;2023-10-09T14:13:52;8.75;;;2.03;;
18526;SDS011;9393;42.158;24.748;2023-10-09T14:17:12;7.20;;;2.05;;
18526;SDS011;9393;42.158;24.748;2023-10-09T14:20:16;5.20;;;2.20;;
18526;SDS011;9393;42.158;24.748;2023-10-09T14:23:33;5.20;;;2.70;;
18526;SDS011;9393;42.158;24.748;2023-10-09T14:26:37;6.45;;;3.10;;
18526;SDS011;9393;42.158;24.748;2023-10-09T14:29:42;6.97;;;2.25;;
18526;SDS011;9393;42.158;24.748;2023-10-09T14:32:47;8.80;;;2.15;;
18526;SDS011;9393;42.158;24.748;2023-10-09T14:35:54;7.72;;;1.70;;
18526;SDS011;9393;42.158;24.748;2023-10-09T14:39:00;12.57;;;2.30;;
18526;SDS011;9393;42.158;24.748;2023-10-09T14:42:06;7.00;;;2.17;;
18526;SDS011;9393;42.158;24.748;2023-10-09T14:45:14;8.48;;;2.40;;
18526;SDS011;9393;42.158;24.748;2023-10-09T14:48:18;7.50;;;2.25;;
18526;SDS011;9393;42.158;24.748;2023-10-09T14:51:28;8.25;;;2.30;;
18526;SDS011;9393;42.158;24.748;2023-10-09T14:54:32;7.20;;;2.00;;
18526;SDS011;9393;42.158;24.748;2023-10-09T14:57:36;6.82;;;1.95;;
18526;SDS011;9393;42.158;24.748;2023-10-09T15:00:41;6.78;;;2.30;;
18526;SDS011;9393;42.158;24.748;2023-10-09T15:03:48;5.20;;;1.90;;
18526;SDS011;9393;42.158;24.748;2023-10-09T15:06:55;7.55;;;2.67;;
18526;SDS011;9393;42.158;24.748;2023-10-09T15:09:59;7.30;;;2.28;;
18526;SDS011;9393;42.158;24.748;2023-10-09T15:13:06;5.30;;;2.03;;
18526;SDS011;9393;42.158;24.748;2023-10-09T15:16:11;6.85;;;2.28;;
18526;SDS011;9393;42.158;24.748;2023-10-09T15:19:16;7.80;;;2.22;;
18526;SDS011;9393;42.158;24.748;2023-10-09T15:22:20;7.03;;;2.28;;
18526;SDS011;9393;42.158;24.748;2023-10-09T15:25:24;6.60;;;1.50;;
18526;SDS011;9393;42.158;24.748;2023-10-09T15:28:28;11.88;;;1.85;;
18526;SDS011;9393;42.158;24.748;2023-10-09T15:31:36;6.75;;;2.38;;
18526;SDS011;9393;42.158;24.748;2023-10-09T15:34:41;11.07;;;2.60;;
18526;SDS011;9393;42.158;24.748;2023-10-09T15:37:46;9.63;;;2.63;;
18526;SDS011;9393;42.158;24.748;2023-10-09T15:40:50;5.07;;;1.90;;
18526;SDS011;9393;42.158;24.748;2023-10-09T15:43:54;6.63;;;2.33;;
18526;SDS011;9393;42.158;24.748;2023-10-09T15:47:02;9.50;;;2.60;;
18526;SDS011;9393;42.158;24.748;2023-10-09T15:50:11;7.85;;;3.30;;
18526;SDS011;9393;42.158;24.748;2023-10-09T15:53:17;7.05;;;3.33;;
18526;SDS011;9393;42.158;24.748;2023-10-09T15:56:21;4.90;;;3.00;;
18526;SDS011;9393;42.158;24.748;2023-10-09T15:59:25;8.88;;;2.83;;
18526;SDS011;9393;42.158;24.748;2023-10-09T16:02:31;8.05;;;2.92;;
18526;SDS011;9393;42.158;24.748;2023-10-09T16:05:35;7.57;;;2.58;;
18526;SDS011;9393;42.158;24.748;2023-10-09T16:08:40;10.30;;;2.80;;
18526;SDS011;9393;42.158;24.748;2023-10-09T16:11:47;6.68;;;2.92;;
18526;SDS011;9393;42.158;24.748;2023-10-09T16:14:51;13.20;;;2.95;;
18526;SDS011;9393;42.158;24.748;2023-10-09T16:17:57;8.02;;;2.58;;
18526;SDS011;9393;42.158;24.748;2023-10-09T16:21:08;6.22;;;2.55;;
18526;SDS011;9393;42.158;24.748;2023-10-09T16:24:14;9.40;;;2.70;;
18526;SDS011;9393;42.158;24.748;2023-10-09T16:27:19;10.73;;;2.72;;
18526;SDS011;9393;42.158;24.748;2023-10-09T16:30:25;9.40;;;2.60;;
18526;SDS011;9393;42.158;24.748;2023-10-09T16:33:31;9.50;;;2.58;;
18526;SDS011;9393;42.158;24.748;2023-10-09T16:36:36;12.35;;;3.78;;
18526;SDS011;9393;42.158;24.748;2023-10-09T16:39:40;16.52;;;4.28;;
18526;SDS011;9393;42.158;24.748;2023-10-09T16:42:46;8.98;;;3.45;;
18526;SDS011;9393;42.158;24.748;2023-10-09T16:45:55;12.73;;;4.85;;
18526;SDS011;9393;42.158;24.748;2023-10-09T16:49:02;13.73;;;3.85;;
18526;SDS011;9393;42.158;24.748;2023-10-09T16:52:07;10.30;;;4.07;;
18526;SDS011;9393;42.158;24.748;2023-10-09T16:55:13;22.45;;;5.20;;
18526;SDS011;9393;42.158;24.748;2023-10-09T16:58:17;15.55;;;4.30;;
18526;SDS011;9393;42.158;24.748;2023-10-09T17:01:21;17.60;;;3.60;;
18526;SDS011;9393;42.158;24.748;2023-10-09T17:04:31;12.90;;;4.10;;
18526;SDS011;9393;42.158;24.748;2023-10-09T17:07:37;14.15;;;4.60;;
18526;SDS011;9393;42.158;24.748;2023-10-09T17:10:41;11.25;;;5.05;;
18526;SDS011;9393;42.158;24.748;2023-10-09T17:13:47;16.50;;;4.60;;
18526;SDS011;9393;42.158;24.748;2023-10-09T17:16:51;16.35;;;5.00;;
18526;SDS011;9393;42.158;24.748;2023-10-09T17:19:58;15.63;;;4.50;;
18526;SDS011;9393;42.158;24.748;2023-10-09T17:23:12;12.13;;;4.40;;
18526;SDS011;9393;42.158;24.748;2023-10-09T17:26:18;12.83;;;4.50;;
18526;SDS011;9393;42.158;24.748;2023-10-09T17:29:24;11.00;;;4.43;;
18526;SDS011;9393;42.158;24.748;2023-10-09T17:32:29;12.98;;;4.68;;
18526;SDS011;9393;42.158;24.748;2023-10-09T17:35:36;10.57;;;3.43;;
18526;SDS011;9393;42.158;24.748;2023-10-09T17:38:42;11.23;;;3.30;;
18526;SDS011;9393;42.158;24.748;2023-10-09T17:41:52;9.87;;;3.93;;
18526;SDS011;9393;42.158;24.748;2023-10-09T17:44:57;9.20;;;3.38;;
18526;SDS011;9393;42.158;24.748;2023-10-09T17:48:02;10.10;;;3.50;;
18526;SDS011;9393;42.158;24.748;2023-10-09T17:51:12;6.90;;;3.10;;
18526;SDS011;9393;42.158;24.748;2023-10-09T17:54:17;9.80;;;3.27;;
18526;SDS011;9393;42.158;24.748;2023-10-09T17:57:25;7.53;;;3.27;;
18526;SDS011;9393;42.158;24.748;2023-10-09T18:00:29;9.27;;;3.27;;
18526;SDS011;9393;42.158;24.748;2023-10-09T18:03:36;12.47;;;3.80;;
18526;SDS011;9393;42.158;24.748;2023-10-09T18:06:42;14.53;;;3.67;;
18526;SDS011;9393;42.158;24.748;2023-10-09T18:09:46;17.37;;;3.57;;
18526;SDS011;9393;42.158;24.748;2023-10-09T18:12:54;12.30;;;3.83;;
18526;SDS011;9393;42.158;24.748;2023-10-09T18:16:01;9.30;;;2.67;;
18526;SDS011;9393;42.158;24.748;2023-10-09T18:19:10;14.97;;;4.10;;
18526;SDS011;9393;42.158;24.748;2023-10-09T18:22:18;7.77;;;3.10;;
18526;SDS011;9393;42.158;24.748;2023-10-09T18:25:23;15.63;;;3.67;;
18526;SDS011;9393;42.158;24.748;2023-10-09T18:28:27;13.30;;;4.47;;
18526;SDS011;9393;42.158;24.748;2023-10-09T18:31:31;17.90;;;4.17;;
18526;SDS011;9393;42.158;24.748;2023-10-09T18:34:35;8.00;;;3.80;;
18526;SDS011;9393;42.158;24.748;2023-10-09T18:37:41;9.93;;;3.50;;
18526;SDS011;9393;42.158;24.748;2023-10-09T18:40:45;7.63;;;3.60;;
18526;SDS011;9393;42.158;24.748;2023-10-09T18:43:50;10.80;;;4.27;;
18526;SDS011;9393;42.158;24.748;2023-10-09T18:46:56;13.43;;;4.10;;
18526;SDS011;9393;42.158;24.748;2023-10-09T18:50:02;16.27;;;4.17;;
18526;SDS011;9393;42.158;24.748;2023-10-09T18:53:07;9.57;;;4.00;;
18526;SDS011;9393;42.158;24.748;2023-10-09T18:56:14;16.33;;;4.97;;
18526;SDS011;9393;42.158;24.748;2023-10-09T18:59:22;15.13;;;4.60;;